Jayton, Texas
Current Conditions -  °F | °C
As of 7:35 PM on Wednesday 26 Nov 2014 (Local Time) from KSNK Reporting Station
Clear Clear  
Wind Chill: 45°   Ceiling: Unl
Heat Index: 48°   Visibility: 10mi
Dew Point: 33°   Wind: 6mph
Humidity: 56%   Direction: 70°ENE
Pressure: 30.34"   Gusts: NA
Location:  33.25°N, 100.57°W
Report Text: KSNK 270135Z AUTO 07005KT 10SM CLR 09/01 A3034 RMK AO2 T00890005
Loading
Personal Weather Stations






























Interactive Weather Map New forecast layout! Learn more

10-Day Weather Forecast

Advertisements
Track Severe Weather on mobile